Akk, Virginia
Current Conditions -  °F | °C
As of 6:55 PM on Wednesday 28 Jan 2015 (Local Time) from KFYJ Reporting Station
Clear Clear  
Wind Chill:   Ceiling: Unl
Heat Index:   Visibility: 10mi
Dew Point: -16°   Wind: 0mph
Humidity: 26%   Direction: NA
Pressure: 30.3"   Gusts: NA
Location:  37.4383°N, 76.5764°W
Report Text: KFYJ 282355Z AUTO 00000KT 10SM CLR 02/M16 A3030 RMK AO2 T00151163 10061 20015
Loading
Personal Weather Stations






























Interactive Weather Map New forecast layout! Learn more

10-Day Weather Forecast

Advertisements
Track Severe Weather on mobile